createdAt,value
2022-10-18T00:02:25.701Z,2.87
2022-10-18T00:05:12.898Z,2.63
2022-10-18T00:08:00.225Z,2.63
2022-10-18T00:10:47.890Z,2.80
2022-10-18T00:13:35.377Z,2.70
2022-10-18T00:16:22.564Z,3.03
2022-10-18T00:19:09.534Z,2.80
2022-10-18T00:21:56.657Z,3.03
2022-10-18T00:24:43.692Z,2.87
2022-10-18T00:27:30.999Z,3.10
2022-10-18T00:30:18.115Z,3.13
2022-10-18T00:33:05.328Z,2.90
2022-10-18T00:35:52.821Z,2.90
2022-10-18T00:38:40.573Z,2.57
2022-10-18T00:41:31.124Z,2.50
2022-10-18T00:44:18.041Z,2.07
2022-10-18T00:47:09.379Z,1.90
2022-10-18T00:50:01.408Z,1.90
2022-10-18T00:52:54.122Z,2.30
2022-10-18T00:55:41.085Z,2.23
2022-10-18T00:58:28.749Z,2.40
2022-10-18T01:01:15.809Z,1.90
2022-10-18T01:04:03.224Z,1.80
2022-10-18T01:07:11.257Z,1.97
2022-10-18T01:10:22.592Z,2.13
2022-10-18T01:13:24.847Z,1.93
2022-10-18T01:16:37.334Z,2.20
2022-10-18T01:19:43.558Z,2.10
2022-10-18T01:22:38.235Z,2.37
2022-10-18T01:25:57.308Z,2.50
2022-10-18T01:28:56.397Z,2.40
2022-10-18T01:31:59.855Z,2.50
2022-10-18T01:34:51.183Z,2.73
2022-10-18T01:37:39.897Z,2.47
2022-10-18T01:40:29.611Z,2.50
2022-10-18T01:43:18.405Z,2.67
2022-10-18T01:46:06.701Z,3.20
2022-10-18T01:48:55.151Z,2.90
2022-10-18T01:51:42.151Z,2.67
2022-10-18T01:54:34.373Z,2.77
2022-10-18T01:57:50.199Z,2.60
2022-10-18T02:00:44.730Z,2.33
2022-10-18T02:03:34.855Z,2.03
2022-10-18T02:06:28.025Z,2.40
2022-10-18T02:09:31.548Z,2.53
2022-10-18T02:12:20.477Z,2.70
2022-10-18T02:15:09.929Z,2.70
2022-10-18T02:17:57.509Z,2.90
2022-10-18T02:20:46.235Z,2.67
2022-10-18T02:23:33.985Z,2.50
2022-10-18T02:26:21.120Z,2.57
2022-10-18T02:29:08.603Z,2.43
2022-10-18T02:32:15.743Z,1.87
2022-10-18T02:35:10.507Z,2.40
2022-10-18T02:37:59.148Z,2.00
2022-10-18T02:40:46.055Z,2.07
2022-10-18T02:43:33.236Z,2.20
2022-10-18T02:46:20.928Z,2.40
2022-10-18T02:49:07.992Z,2.00
2022-10-18T02:51:55.099Z,2.60
2022-10-18T02:54:42.060Z,2.70
2022-10-18T02:57:30.368Z,2.97
2022-10-18T03:00:17.611Z,2.60
2022-10-18T03:03:04.520Z,2.30
2022-10-18T03:05:52.402Z,2.30
2022-10-18T03:08:39.570Z,2.00
2022-10-18T03:11:26.476Z,2.20
2022-10-18T03:14:13.449Z,1.93
2022-10-18T03:17:00.411Z,1.90
2022-10-18T03:19:47.405Z,2.13
2022-10-18T03:22:34.359Z,2.60
2022-10-18T03:25:21.402Z,2.30
2022-10-18T03:28:08.631Z,2.13
2022-10-18T03:31:03.170Z,2.27
2022-10-18T03:33:50.145Z,2.00
2022-10-18T03:36:38.572Z,1.97
2022-10-18T03:39:25.616Z,1.97
2022-10-18T03:42:12.601Z,1.70
2022-10-18T03:44:59.560Z,1.90
2022-10-18T03:47:46.523Z,2.03
2022-10-18T03:50:33.495Z,2.00
2022-10-18T03:53:20.461Z,1.60
2022-10-18T03:56:07.413Z,1.70
2022-10-18T03:58:54.325Z,1.60
2022-10-18T04:01:41.336Z,1.97
2022-10-18T04:04:28.310Z,2.40
2022-10-18T04:07:15.859Z,2.10
2022-10-18T04:10:02.907Z,2.40
2022-10-18T04:12:50.021Z,2.20
2022-10-18T04:15:37.188Z,2.00
2022-10-18T04:18:24.144Z,2.27
2022-10-18T04:21:11.057Z,2.30
2022-10-18T04:23:58.089Z,2.10
2022-10-18T04:26:45.182Z,2.30
2022-10-18T04:29:32.430Z,2.20
2022-10-18T04:32:19.363Z,2.20
2022-10-18T04:35:07.347Z,2.30
2022-10-18T04:37:54.833Z,2.40
2022-10-18T04:40:41.787Z,2.03
2022-10-18T04:43:28.754Z,2.00
2022-10-18T04:46:15.702Z,2.00
2022-10-18T04:49:03.284Z,2.20
2022-10-18T04:51:50.198Z,1.90
2022-10-18T04:54:37.780Z,2.30
2022-10-18T04:57:24.733Z,2.03
2022-10-18T05:00:12.521Z,2.00
2022-10-18T05:02:59.487Z,2.27
2022-10-18T05:06:02.813Z,2.10
2022-10-18T05:08:50.471Z,2.30
2022-10-18T05:11:37.404Z,2.60
2022-10-18T05:14:24.429Z,2.37
2022-10-18T05:17:11.403Z,2.30
2022-10-18T05:19:58.431Z,2.83
2022-10-18T05:22:45.490Z,2.30
2022-10-18T05:25:32.481Z,2.57
2022-10-18T05:28:39.707Z,2.33
2022-10-18T05:31:26.579Z,2.50
2022-10-18T05:34:13.513Z,2.50
2022-10-18T05:37:00.740Z,2.70
2022-10-18T05:39:47.871Z,2.57
2022-10-18T05:42:34.869Z,2.50
2022-10-18T05:45:21.836Z,2.40
2022-10-18T05:48:09.420Z,2.00
2022-10-18T05:51:00.377Z,2.10
2022-10-18T05:53:47.702Z,2.80
2022-10-18T05:56:34.737Z,2.67
2022-10-18T05:59:21.705Z,2.57
2022-10-18T06:02:11.332Z,3.00
2022-10-18T06:04:58.379Z,3.70
2022-10-18T06:07:45.339Z,3.50
2022-10-18T06:10:32.258Z,3.40
2022-10-18T06:13:19.214Z,3.13
2022-10-18T06:16:06.603Z,3.23
2022-10-18T06:18:55.461Z,3.70
2022-10-18T06:21:43.766Z,3.50
2022-10-18T06:24:31.031Z,3.00
2022-10-18T06:27:18.233Z,3.27
2022-10-18T06:30:05.757Z,3.90
2022-10-18T06:32:52.768Z,3.30
2022-10-18T06:35:39.827Z,3.10
2022-10-18T06:38:28.392Z,3.27
2022-10-18T06:41:15.505Z,3.40
2022-10-18T06:44:08.599Z,3.60
2022-10-18T06:46:55.531Z,4.20
2022-10-18T06:49:42.452Z,3.53
2022-10-18T06:52:29.702Z,3.97
2022-10-18T06:55:16.787Z,3.60
2022-10-18T06:58:03.804Z,3.27
2022-10-18T07:00:50.829Z,2.93
2022-10-18T07:03:38.215Z,2.63
2022-10-18T07:06:25.680Z,2.53
2022-10-18T07:09:12.726Z,3.10
2022-10-18T07:11:59.737Z,3.37
2022-10-18T07:14:46.727Z,3.47
2022-10-18T07:17:34.071Z,3.33
2022-10-18T07:20:21.368Z,3.20
2022-10-18T07:23:09.496Z,3.63
2022-10-18T07:25:56.444Z,3.73
2022-10-18T07:28:44.794Z,4.00
2022-10-18T07:31:31.871Z,3.90
2022-10-18T07:34:18.968Z,4.30
2022-10-18T07:37:05.996Z,4.57
2022-10-18T07:39:52.928Z,4.47
2022-10-18T07:42:39.901Z,5.43
2022-10-18T07:45:26.921Z,5.70
2022-10-18T07:48:13.881Z,5.43
2022-10-18T07:51:01.828Z,6.13
2022-10-18T07:53:49.349Z,7.07
2022-10-18T07:56:36.381Z,7.00
2022-10-18T07:59:23.413Z,6.57
2022-10-18T08:02:10.480Z,6.37
2022-10-18T08:04:57.471Z,6.87
2022-10-18T08:07:44.364Z,7.37
2022-10-18T08:10:31.268Z,7.20
2022-10-18T08:13:18.802Z,6.73
2022-10-18T08:16:09.071Z,7.17
2022-10-18T08:18:58.146Z,7.17
2022-10-18T08:21:45.059Z,6.97
2022-10-18T08:24:32.063Z,6.80
2022-10-18T08:27:19.076Z,7.07
2022-10-18T08:30:06.557Z,6.83
2022-10-18T08:32:53.633Z,7.97
2022-10-18T08:35:40.655Z,7.60
2022-10-18T08:38:31.431Z,7.47
2022-10-18T08:41:37.107Z,7.83
2022-10-18T08:44:28.501Z,6.77
2022-10-18T08:47:20.093Z,7.57
2022-10-18T08:50:31.203Z,7.10
2022-10-18T08:53:24.597Z,6.60
2022-10-18T08:56:15.030Z,7.77
2022-10-18T08:59:04.161Z,7.93
2022-10-18T09:01:59.904Z,8.27
2022-10-18T09:05:07.689Z,9.40
2022-10-18T09:08:21.827Z,9.10
2022-10-18T09:11:38.035Z,8.40
2022-10-18T09:14:46.692Z,7.73
2022-10-18T09:18:07.793Z,8.17
2022-10-18T09:20:58.515Z,6.87
2022-10-18T09:23:56.533Z,6.90
2022-10-18T09:26:45.978Z,6.13
2022-10-18T09:29:55.531Z,5.70
2022-10-18T09:33:02.881Z,5.37
2022-10-18T09:36:01.735Z,4.40
2022-10-18T09:38:56.081Z,4.77
2022-10-18T09:42:14.823Z,5.03
2022-10-18T09:45:29.129Z,5.43
2022-10-18T09:48:26.574Z,4.90
2022-10-18T09:51:28.686Z,4.57
2022-10-18T09:54:28.118Z,4.93
2022-10-18T09:57:23.819Z,5.47
2022-10-18T10:00:21.208Z,5.50
2022-10-18T10:03:15.764Z,4.90
2022-10-18T10:06:27.530Z,4.80
2022-10-18T10:09:16.865Z,4.77
2022-10-18T10:12:03.951Z,4.83
2022-10-18T10:14:50.886Z,5.10
2022-10-18T10:17:38.093Z,4.90
2022-10-18T10:20:34.013Z,4.77
2022-10-18T10:23:26.089Z,5.37
2022-10-18T10:26:34.156Z,4.60
2022-10-18T10:29:45.992Z,4.93
2022-10-18T10:32:46.360Z,5.03
2022-10-18T10:35:53.862Z,4.63
2022-10-18T10:38:41.454Z,4.70
2022-10-18T10:41:28.502Z,4.70
2022-10-18T10:44:18.118Z,5.47
2022-10-18T10:47:05.701Z,4.40
2022-10-18T10:49:56.415Z,4.20
2022-10-18T10:52:47.295Z,4.30
2022-10-18T10:55:35.939Z,3.97
2022-10-18T10:58:23.947Z,4.53
2022-10-18T11:01:32.157Z,4.27
2022-10-18T11:04:38.436Z,4.80
2022-10-18T11:07:36.146Z,4.47
2022-10-18T11:10:25.149Z,4.77
2022-10-18T11:13:24.672Z,3.90
2022-10-18T11:16:34.683Z,4.07
2022-10-18T11:19:55.897Z,4.10
2022-10-18T11:23:01.188Z,4.00
2022-10-18T11:26:07.522Z,3.80
2022-10-18T11:29:19.360Z,3.40
2022-10-18T11:32:18.827Z,3.03
2022-10-18T11:35:31.578Z,3.13
2022-10-18T11:38:24.187Z,3.00
2022-10-18T11:41:23.219Z,3.33
2022-10-18T11:44:42.956Z,2.97
2022-10-18T11:47:52.179Z,3.53
2022-10-18T11:51:06.264Z,2.80
2022-10-18T11:54:31.131Z,3.03
2022-10-18T11:57:38.369Z,2.90
2022-10-18T12:00:51.534Z,2.80
2022-10-18T12:04:04.816Z,2.77
2022-10-18T12:06:55.063Z,2.60
2022-10-18T12:09:46.004Z,2.73
2022-10-18T12:12:41.310Z,2.73
2022-10-18T12:15:31.435Z,2.60
2022-10-18T12:18:24.027Z,3.00
2022-10-18T12:21:12.990Z,2.47
2022-10-18T12:24:02.843Z,2.80
2022-10-18T12:26:53.679Z,2.80
2022-10-18T12:29:50.418Z,2.77
2022-10-18T12:32:38.971Z,2.73
2022-10-18T12:35:31.290Z,3.30
2022-10-18T12:38:26.872Z,3.57
2022-10-18T12:41:25.313Z,3.10
2022-10-18T12:44:22.243Z,3.00
2022-10-18T12:47:22.619Z,2.97
2022-10-18T12:50:36.389Z,3.30
2022-10-18T12:53:26.845Z,3.20
2022-10-18T12:56:29.069Z,3.43
2022-10-18T12:59:15.952Z,3.30
2022-10-18T13:02:05.598Z,3.83
2022-10-18T13:04:52.642Z,3.27
2022-10-18T13:07:43.072Z,3.00
2022-10-18T13:10:36.245Z,3.37
2022-10-18T13:13:40.224Z,3.30
2022-10-18T13:16:38.228Z,3.27
2022-10-18T13:19:49.059Z,3.20
2022-10-18T13:22:59.766Z,3.00
2022-10-18T13:26:15.652Z,3.20
2022-10-18T13:29:30.457Z,3.40
2022-10-18T13:32:32.532Z,3.50
2022-10-18T13:35:38.277Z,3.50
2022-10-18T13:38:40.044Z,3.47
2022-10-18T13:41:31.313Z,4.50
2022-10-18T13:44:40.102Z,4.43
2022-10-18T13:47:35.324Z,3.83
2022-10-18T13:50:30.851Z,3.17
2022-10-18T13:53:45.759Z,3.40
2022-10-18T13:56:59.987Z,2.77
2022-10-18T14:00:04.778Z,3.20
2022-10-18T14:03:58.955Z,2.70
2022-10-18T14:06:47.446Z,2.67
2022-10-18T14:09:45.367Z,2.80
2022-10-18T14:12:43.517Z,3.20
2022-10-18T14:15:39.362Z,2.73
2022-10-18T14:18:34.652Z,2.70
2022-10-18T14:21:31.478Z,2.30
2022-10-18T14:24:28.249Z,2.73
2022-10-18T14:27:21.933Z,2.43
2022-10-18T14:30:18.187Z,2.23
2022-10-18T14:33:05.566Z,2.50
2022-10-18T14:36:09.119Z,2.60
2022-10-18T14:39:00.860Z,2.50
2022-10-18T14:41:52.874Z,2.50
2022-10-18T14:44:39.842Z,2.70
2022-10-18T14:47:31.281Z,2.70
2022-10-18T14:50:28.042Z,3.10
2022-10-18T14:53:21.950Z,3.20
2022-10-18T14:56:24.109Z,3.27
2022-10-18T14:59:25.905Z,3.37
2022-10-18T15:02:21.243Z,2.90
2022-10-18T15:05:19.286Z,2.90
2022-10-18T15:08:06.322Z,2.50
2022-10-18T15:10:53.480Z,2.17
2022-10-18T15:13:54.329Z,2.87
2022-10-18T15:16:42.260Z,2.70
2022-10-18T15:19:35.037Z,2.60
2022-10-18T15:22:31.687Z,2.30
2022-10-18T15:25:32.074Z,2.87
2022-10-18T15:28:31.896Z,2.77
2022-10-18T15:31:23.627Z,2.57
2022-10-18T15:34:25.963Z,2.50
2022-10-18T15:37:37.846Z,2.60
2022-10-18T15:40:24.679Z,2.57
2022-10-18T15:43:31.819Z,2.47
2022-10-18T15:46:32.437Z,2.37
2022-10-18T15:49:47.801Z,2.30
2022-10-18T15:52:42.042Z,2.23
2022-10-18T15:55:32.924Z,2.50
2022-10-18T15:58:24.165Z,2.63
2022-10-18T16:01:17.108Z,2.43
2022-10-18T16:04:24.396Z,2.43
2022-10-18T16:07:11.936Z,3.17
2022-10-18T16:09:58.893Z,4.00
2022-10-18T16:12:46.012Z,3.00
2022-10-18T16:15:33.002Z,3.13
2022-10-18T16:18:20.433Z,3.20
2022-10-18T16:21:16.658Z,3.00
2022-10-18T16:24:04.647Z,2.87
2022-10-18T16:26:51.819Z,2.70
2022-10-18T16:29:41.174Z,3.00
2022-10-18T16:32:28.074Z,2.53
2022-10-18T16:35:15.091Z,2.90
2022-10-18T16:38:02.150Z,2.57
2022-10-18T16:40:49.227Z,2.40
2022-10-18T16:43:36.765Z,2.40
2022-10-18T16:46:30.181Z,2.67
2022-10-18T16:49:23.832Z,2.47
2022-10-18T16:52:11.385Z,1.67
2022-10-18T16:54:58.309Z,2.43
2022-10-18T16:57:45.313Z,2.30
2022-10-18T17:00:32.739Z,2.00
2022-10-18T17:03:20.264Z,2.20
2022-10-18T17:06:18.881Z,2.20
2022-10-18T17:09:06.292Z,2.20
2022-10-18T17:11:53.604Z,2.30
2022-10-18T17:14:40.573Z,3.63
2022-10-18T17:17:27.769Z,7.53
2022-10-18T17:20:21.389Z,7.37
2022-10-18T17:23:09.358Z,5.90
2022-10-18T17:26:05.387Z,3.90
2022-10-18T17:29:01.709Z,3.10
2022-10-18T17:31:48.671Z,2.83
2022-10-18T17:34:36.071Z,2.83
2022-10-18T17:37:23.069Z,2.30
2022-10-18T17:40:10.382Z,2.20
2022-10-18T17:42:57.403Z,2.30
2022-10-18T17:45:54.800Z,2.03
2022-10-18T17:48:43.198Z,2.60
2022-10-18T17:51:30.230Z,2.53
2022-10-18T17:54:17.181Z,2.50
2022-10-18T17:57:04.503Z,2.73
2022-10-18T17:59:54.601Z,2.83
2022-10-18T18:02:42.520Z,3.17
2022-10-18T18:05:31.275Z,2.70
2022-10-18T18:08:18.194Z,2.50
2022-10-18T18:11:05.247Z,2.37
2022-10-18T18:13:54.147Z,2.30
2022-10-18T18:16:43.437Z,2.37
2022-10-18T18:19:31.216Z,2.40
2022-10-18T18:22:18.133Z,2.40
2022-10-18T18:25:05.976Z,2.20
2022-10-18T18:27:54.206Z,2.50
2022-10-18T18:30:41.448Z,2.60
2022-10-18T18:33:28.376Z,2.40
2022-10-18T18:36:15.407Z,2.47
2022-10-18T18:39:02.426Z,2.80
2022-10-18T18:41:51.492Z,2.50
2022-10-18T18:44:38.503Z,2.43
2022-10-18T18:47:27.056Z,1.83
2022-10-18T18:50:14.024Z,1.87
2022-10-18T18:53:00.947Z,2.00
2022-10-18T18:55:50.604Z,1.80
2022-10-18T18:58:39.031Z,2.00
2022-10-18T19:01:30.270Z,1.97
2022-10-18T19:04:17.322Z,2.20
2022-10-18T19:07:04.320Z,2.43
2022-10-18T19:09:51.345Z,2.27
2022-10-18T19:12:38.542Z,2.13
2022-10-18T19:15:25.563Z,1.90
2022-10-18T19:18:12.607Z,1.90
2022-10-18T19:20:59.555Z,2.17
2022-10-18T19:23:46.513Z,2.03
2022-10-18T19:26:45.362Z,2.30
2022-10-18T19:29:35.203Z,2.30
2022-10-18T19:32:22.207Z,2.60
2022-10-18T19:35:09.251Z,2.50
2022-10-18T19:37:56.151Z,2.80
2022-10-18T19:40:43.569Z,2.67
2022-10-18T19:43:30.601Z,2.07
2022-10-18T19:46:17.743Z,2.30
2022-10-18T19:49:04.868Z,2.23
2022-10-18T19:51:51.989Z,2.43
2022-10-18T19:54:39.143Z,2.00
2022-10-18T19:57:26.087Z,2.40
2022-10-18T20:00:17.344Z,2.67
2022-10-18T20:03:06.311Z,2.43
2022-10-18T20:06:01.380Z,2.33
2022-10-18T20:08:48.566Z,2.17
2022-10-18T20:11:36.222Z,2.10
2022-10-18T20:14:23.245Z,2.50
2022-10-18T20:17:12.856Z,2.23
2022-10-18T20:19:59.757Z,2.40
2022-10-18T20:22:46.655Z,2.27
2022-10-18T20:25:33.562Z,2.27
2022-10-18T20:28:20.482Z,2.27
2022-10-18T20:31:11.625Z,2.47
2022-10-18T20:34:01.356Z,2.10
2022-10-18T20:36:48.536Z,2.30
2022-10-18T20:39:35.753Z,2.50
2022-10-18T20:42:22.678Z,2.13
2022-10-18T20:45:10.675Z,2.33
2022-10-18T20:47:57.578Z,2.40
2022-10-18T20:50:44.482Z,2.77
2022-10-18T20:53:31.681Z,2.60
2022-10-18T20:56:21.694Z,2.33
2022-10-18T20:59:10.124Z,2.10
2022-10-18T21:01:57.235Z,2.50
2022-10-18T21:04:44.155Z,2.20
2022-10-18T21:07:31.507Z,2.33
2022-10-18T21:10:18.777Z,2.23
2022-10-18T21:13:05.780Z,1.60
2022-10-18T21:15:57.296Z,1.20
2022-10-18T21:18:44.258Z,0.90
2022-10-18T21:21:31.677Z,1.00
2022-10-18T21:24:19.699Z,1.40
2022-10-18T21:27:06.663Z,1.30
2022-10-18T21:29:53.580Z,1.00
2022-10-18T21:32:40.548Z,0.70
2022-10-18T21:35:27.487Z,0.77
2022-10-18T21:38:14.461Z,1.27
2022-10-18T21:41:06.985Z,0.90
2022-10-18T21:43:54.772Z,1.10
2022-10-18T21:46:46.648Z,1.30
2022-10-18T21:49:35.141Z,1.50
2022-10-18T21:52:22.122Z,1.90
2022-10-18T21:55:09.303Z,1.87
2022-10-18T21:57:56.247Z,1.13
2022-10-18T22:00:44.590Z,1.20
2022-10-18T22:03:31.697Z,1.20
2022-10-18T22:06:19.541Z,1.40
2022-10-18T22:09:08.364Z,1.83
2022-10-18T22:11:55.589Z,1.77
2022-10-18T22:14:42.642Z,2.20
2022-10-18T22:17:29.568Z,2.43
2022-10-18T22:20:16.674Z,2.20
2022-10-18T22:23:03.630Z,3.07
2022-10-18T22:25:50.621Z,2.87
2022-10-18T22:28:39.284Z,2.17
2022-10-18T22:31:30.388Z,1.90
2022-10-18T22:34:20.464Z,2.43
2022-10-18T22:37:07.397Z,2.30
2022-10-18T22:39:54.297Z,2.40
2022-10-18T22:42:41.231Z,1.90
2022-10-18T22:45:28.131Z,2.30
2022-10-18T22:48:15.212Z,1.90
2022-10-18T22:51:03.290Z,2.00
2022-10-18T22:53:50.274Z,1.93
2022-10-18T22:56:37.320Z,1.80
2022-10-18T22:59:24.620Z,1.60
2022-10-18T23:02:11.575Z,1.27
2022-10-18T23:04:58.489Z,1.30
2022-10-18T23:07:49.279Z,1.33
2022-10-18T23:10:37.743Z,1.67
2022-10-18T23:13:26.330Z,1.83
2022-10-18T23:16:13.690Z,1.67
2022-10-18T23:19:00.786Z,1.50
2022-10-18T23:21:47.783Z,1.50
2022-10-18T23:24:34.695Z,1.80
2022-10-18T23:27:21.683Z,1.90
2022-10-18T23:30:09.594Z,1.90
2022-10-18T23:32:56.601Z,2.50
2022-10-18T23:35:43.534Z,3.00
2022-10-18T23:38:31.499Z,3.20
2022-10-18T23:41:18.752Z,3.00
2022-10-18T23:44:05.740Z,3.50
2022-10-18T23:46:52.746Z,3.60
2022-10-18T23:49:39.678Z,3.30
2022-10-18T23:52:26.615Z,3.40
2022-10-18T23:55:13.604Z,3.63
2022-10-18T23:58:00.731Z,3.60
